createdAt,value
2022-11-24T00:01:39.140Z,37.33
2022-11-24T00:04:40.152Z,40.88
2022-11-24T00:07:41.203Z,34.92
2022-11-24T00:10:35.129Z,37.80
2022-11-24T00:13:36.138Z,59.10
2022-11-24T00:16:38.159Z,38.60
2022-11-24T00:19:39.126Z,39.90
2022-11-24T00:22:40.140Z,44.38
2022-11-24T00:25:41.140Z,44.83
2022-11-24T00:28:42.311Z,37.10
2022-11-24T00:31:50.130Z,39.17
2022-11-24T00:34:51.191Z,44.78
2022-11-24T00:37:52.137Z,30.75
2022-11-24T00:40:53.156Z,55.97
2022-11-24T00:43:54.146Z,48.67
2022-11-24T00:46:55.203Z,55.42
2022-11-24T00:49:56.156Z,50.42
2022-11-24T00:52:57.143Z,36.70
2022-11-24T00:56:03.168Z,43.88
2022-11-24T00:59:04.137Z,32.75
2022-11-24T01:02:05.208Z,43.00
2022-11-24T01:05:06.139Z,41.22
2022-11-24T01:08:07.139Z,36.88
2022-11-24T01:11:01.142Z,31.73
2022-11-24T01:14:05.165Z,33.03
2022-11-24T01:17:06.145Z,34.90
2022-11-24T01:20:07.177Z,32.38
2022-11-24T01:23:08.148Z,38.47
2022-11-24T01:26:02.172Z,55.15
2022-11-24T01:29:10.151Z,19.75
2022-11-24T01:32:11.149Z,35.47
2022-11-24T01:35:12.183Z,38.55
2022-11-24T01:38:13.148Z,32.60
2022-11-24T01:41:29.167Z,42.88
2022-11-24T01:44:41.171Z,46.67
2022-11-24T01:47:48.232Z,39.40
2022-11-24T01:50:49.184Z,39.40
2022-11-24T01:53:50.181Z,43.47
2022-11-24T01:56:54.180Z,39.70
2022-11-24T01:59:55.194Z,34.70
2022-11-24T02:03:07.157Z,39.75
2022-11-24T02:06:24.200Z,32.30
2022-11-24T02:09:39.191Z,33.58
2022-11-24T02:12:40.167Z,46.72
2022-11-24T02:15:42.209Z,38.00
2022-11-24T02:18:43.190Z,48.75
2022-11-24T02:21:44.187Z,34.40
2022-11-24T02:24:53.186Z,25.63
2022-11-24T02:27:56.190Z,45.40
2022-11-24T02:30:57.224Z,41.28
2022-11-24T02:33:58.172Z,29.10
2022-11-24T02:36:52.184Z,38.83
2022-11-24T02:39:53.186Z,37.92
2022-11-24T02:42:56.222Z,42.55
2022-11-24T02:45:57.283Z,42.65
2022-11-24T02:48:58.169Z,43.17
2022-11-24T02:51:59.201Z,42.90
2022-11-24T02:55:00.234Z,41.63
2022-11-24T02:58:01.225Z,37.58
2022-11-24T03:01:03.203Z,44.55
2022-11-24T03:04:05.196Z,39.65
2022-11-24T03:07:06.292Z,48.65
2022-11-24T03:10:07.217Z,36.17
2022-11-24T03:13:08.242Z,33.50
2022-11-24T03:16:09.273Z,36.22
2022-11-24T03:19:10.233Z,25.45
2022-11-24T03:22:11.233Z,31.70
2022-11-24T03:25:12.215Z,27.75
2022-11-24T03:28:13.211Z,35.95
2022-11-24T03:31:14.299Z,48.15
2022-11-24T03:34:15.195Z,43.78
2022-11-24T03:37:16.227Z,31.75
2022-11-24T03:40:17.245Z,25.75
2022-11-24T03:43:18.213Z,51.70
2022-11-24T03:46:19.230Z,39.90
2022-11-24T03:49:20.227Z,54.33
2022-11-24T03:52:21.220Z,44.20
2022-11-24T03:55:22.215Z,35.22
2022-11-24T03:58:23.235Z,35.20
2022-11-24T04:01:24.264Z,48.50
2022-11-24T04:04:26.236Z,38.33
2022-11-24T04:07:27.269Z,38.53
2022-11-24T04:10:28.229Z,32.28
2022-11-24T04:13:30.258Z,35.60
2022-11-24T04:16:32.332Z,17.27
2022-11-24T04:19:33.257Z,50.00
2022-11-24T04:22:34.244Z,31.77
2022-11-24T04:25:35.238Z,33.03
2022-11-24T04:28:36.253Z,39.70
2022-11-24T04:31:37.295Z,40.83
2022-11-24T04:34:38.233Z,37.90
2022-11-24T04:37:39.277Z,35.15
2022-11-24T04:40:40.232Z,46.88
2022-11-24T04:43:41.233Z,24.00
2022-11-24T04:46:42.291Z,37.65
2022-11-24T04:49:43.261Z,43.55
2022-11-24T04:52:44.269Z,24.40
2022-11-24T04:55:45.279Z,25.38
2022-11-24T04:58:46.227Z,37.95
2022-11-24T05:01:47.355Z,35.38
2022-11-24T05:04:48.343Z,32.78
2022-11-24T05:07:49.335Z,38.65
2022-11-24T05:10:50.308Z,27.40
2022-11-24T05:13:51.223Z,31.50
2022-11-24T05:16:52.243Z,38.70
2022-11-24T05:19:53.304Z,39.40
2022-11-24T05:22:54.269Z,36.95
2022-11-24T05:25:56.281Z,39.08
2022-11-24T05:28:57.506Z,37.42
2022-11-24T05:31:58.266Z,39.45
2022-11-24T05:35:00.318Z,23.17
2022-11-24T05:38:01.247Z,30.02
2022-11-24T05:41:02.276Z,36.80
2022-11-24T05:44:03.449Z,30.23
2022-11-24T05:47:04.584Z,35.25
2022-11-24T05:50:05.508Z,30.75
2022-11-24T05:53:06.280Z,36.10
2022-11-24T05:56:08.285Z,35.88
2022-11-24T05:59:10.089Z,33.10
2022-11-24T06:02:11.469Z,31.20
2022-11-24T06:05:12.280Z,29.60
2022-11-24T06:08:13.297Z,19.75
2022-11-24T06:11:24.270Z,28.70
2022-11-24T06:14:25.310Z,21.35
2022-11-24T06:17:26.270Z,35.15
2022-11-24T06:20:32.500Z,27.42
2022-11-24T06:23:33.298Z,26.98
2022-11-24T06:26:34.317Z,34.35
2022-11-24T06:29:35.258Z,19.30
2022-11-24T06:32:36.300Z,21.00
2022-11-24T06:35:37.278Z,25.98
2022-11-24T06:38:38.321Z,23.40
2022-11-24T06:41:39.299Z,20.75
2022-11-24T06:44:40.262Z,12.73
2022-11-24T06:47:41.308Z,17.92
2022-11-24T06:50:42.308Z,16.98
2022-11-24T06:53:44.310Z,16.95
2022-11-24T06:56:45.304Z,16.35
2022-11-24T06:59:46.295Z,15.57
2022-11-24T07:02:47.308Z,9.25
2022-11-24T07:05:48.314Z,11.43
2022-11-24T07:08:49.345Z,12.25
2022-11-24T07:11:51.359Z,6.80
2022-11-24T07:14:52.446Z,8.05
2022-11-24T07:17:53.309Z,11.98
2022-11-24T07:20:54.303Z,9.95
2022-11-24T07:23:55.298Z,9.10
2022-11-24T07:26:56.318Z,12.15
2022-11-24T07:29:57.293Z,6.65
2022-11-24T07:32:58.428Z,4.95
2022-11-24T07:35:59.304Z,8.13
2022-11-24T07:39:00.325Z,5.45
2022-11-24T07:42:02.314Z,5.47
2022-11-24T07:45:03.304Z,6.28
2022-11-24T07:48:04.338Z,7.20
2022-11-24T07:51:05.339Z,5.15
2022-11-24T07:53:59.308Z,3.47
2022-11-24T07:57:03.356Z,6.82
2022-11-24T08:00:04.353Z,5.43
2022-11-24T08:03:05.313Z,6.93
2022-11-24T08:06:27.212Z,9.60
2022-11-24T08:09:24.312Z,6.35
2022-11-24T08:12:28.320Z,6.72
2022-11-24T08:15:29.310Z,7.13
2022-11-24T08:18:31.350Z,9.90
2022-11-24T08:21:32.346Z,3.72
2022-11-24T08:24:26.327Z,9.73
2022-11-24T08:27:28.340Z,7.25
2022-11-24T08:30:29.363Z,11.75
2022-11-24T08:33:30.331Z,7.57
2022-11-24T08:36:32.372Z,10.02
2022-11-24T08:39:33.319Z,13.45
2022-11-24T08:42:34.368Z,11.00
2022-11-24T08:45:41.002Z,13.15
2022-11-24T08:48:42.337Z,11.10
2022-11-24T08:51:43.376Z,7.20
2022-11-24T08:54:44.334Z,8.93
2022-11-24T08:57:45.353Z,9.43
2022-11-24T09:00:46.340Z,15.02
2022-11-24T09:03:50.613Z,8.93
2022-11-24T09:06:53.355Z,18.08
2022-11-24T09:09:55.486Z,19.40
2022-11-24T09:12:58.353Z,16.67
2022-11-24T09:15:59.340Z,18.55
2022-11-24T09:19:00.355Z,13.98
2022-11-24T09:22:01.367Z,14.57
2022-11-24T09:25:02.360Z,14.52
2022-11-24T09:28:05.431Z,12.65
2022-11-24T09:31:06.392Z,13.57
2022-11-24T09:34:08.360Z,10.15
2022-11-24T09:37:09.487Z,14.93
2022-11-24T09:40:10.368Z,10.30
2022-11-24T09:43:26.358Z,16.88
2022-11-24T09:46:47.379Z,11.70
2022-11-24T09:50:04.385Z,17.47
2022-11-24T09:53:14.380Z,10.90
2022-11-24T09:56:28.402Z,12.05
2022-11-24T09:59:31.412Z,14.15
2022-11-24T10:02:32.412Z,17.58
2022-11-24T10:05:33.383Z,13.40
2022-11-24T10:08:56.423Z,9.85
2022-11-24T10:12:06.394Z,14.40
2022-11-24T10:15:18.392Z,12.73
2022-11-24T10:18:31.367Z,10.48
2022-11-24T10:21:45.442Z,11.80
2022-11-24T10:24:57.380Z,17.58
2022-11-24T10:28:06.408Z,13.75
2022-11-24T10:31:18.436Z,14.25
2022-11-24T10:34:42.400Z,14.18
2022-11-24T10:37:50.408Z,16.60
2022-11-24T10:40:58.272Z,12.77
2022-11-24T10:43:59.399Z,17.52
2022-11-24T10:47:00.435Z,16.40
2022-11-24T10:50:16.465Z,13.88
2022-11-24T10:53:29.457Z,16.90
2022-11-24T10:56:31.413Z,13.13
2022-11-24T10:59:31.438Z,19.15
2022-11-24T11:02:44.546Z,11.30
2022-11-24T11:05:48.436Z,17.65
2022-11-24T11:08:49.438Z,12.80
2022-11-24T11:11:53.414Z,11.32
2022-11-24T11:14:54.426Z,17.20
2022-11-24T11:17:56.432Z,12.60
2022-11-24T11:21:11.415Z,13.65
2022-11-24T11:24:13.421Z,15.73
2022-11-24T11:27:35.468Z,14.00
2022-11-24T11:34:20.511Z,17.98
2022-11-24T11:37:27.965Z,27.58
2022-11-24T11:40:30.469Z,15.77
2022-11-24T11:43:42.463Z,19.23
2022-11-24T11:46:44.752Z,19.98
2022-11-24T11:49:46.481Z,21.15
2022-11-24T11:53:39.433Z,22.77
2022-11-24T11:56:57.506Z,18.05
2022-11-24T12:00:19.439Z,19.27
2022-11-24T12:03:48.572Z,18.52
2022-11-24T12:06:55.483Z,14.98
2022-11-24T12:10:05.522Z,16.60
2022-11-24T12:13:40.640Z,25.27
2022-11-24T12:16:51.441Z,14.25
2022-11-24T12:20:16.449Z,22.50
2022-11-24T12:24:09.464Z,13.40
2022-11-24T12:27:22.937Z,23.40
2022-11-24T12:30:26.797Z,19.27
2022-11-24T12:34:01.739Z,18.60
2022-11-24T12:37:21.526Z,14.00
2022-11-24T12:40:25.461Z,21.75
2022-11-24T12:43:46.715Z,15.80
2022-11-24T12:47:05.556Z,21.80
2022-11-24T12:50:26.477Z,19.52
2022-11-24T12:53:30.483Z,16.95
2022-11-24T12:56:36.484Z,14.68
2022-11-24T12:59:59.455Z,21.17
2022-11-24T13:03:27.480Z,13.43
2022-11-24T13:06:58.506Z,18.02
2022-11-24T13:14:36.436Z,19.85
2022-11-24T13:18:03.945Z,15.25
2022-11-24T13:21:07.470Z,13.57
2022-11-24T13:24:12.600Z,15.15
2022-11-24T13:27:33.470Z,8.63
2022-11-24T13:30:49.665Z,13.63
2022-11-24T13:33:51.680Z,25.98
2022-11-24T13:37:31.459Z,22.05
2022-11-24T13:40:27.493Z,17.25
2022-11-24T13:43:21.507Z,21.30
2022-11-24T13:46:23.578Z,15.85
2022-11-24T13:49:27.679Z,17.35
2022-11-24T13:52:49.489Z,14.20
2022-11-24T13:55:51.630Z,21.15
2022-11-24T13:58:53.496Z,17.33
2022-11-24T14:01:54.615Z,16.63
2022-11-24T14:04:57.487Z,23.48
2022-11-24T14:08:07.497Z,17.45
2022-11-24T14:11:11.524Z,23.17
2022-11-24T14:14:14.696Z,20.52
2022-11-24T14:17:26.517Z,20.88
2022-11-24T14:20:36.514Z,26.77
2022-11-24T14:23:38.510Z,14.10
2022-11-24T14:26:46.489Z,21.65
2022-11-24T14:29:52.808Z,23.52
2022-11-24T14:32:55.495Z,19.00
2022-11-24T14:36:00.513Z,21.52
2022-11-24T14:39:01.494Z,17.88
2022-11-24T14:42:18.562Z,22.60
2022-11-24T14:45:19.493Z,16.63
2022-11-24T14:48:29.575Z,22.02
2022-11-24T14:51:42.568Z,24.08
2022-11-24T14:55:22.771Z,21.50
2022-11-24T14:58:44.513Z,17.98
2022-11-24T15:01:47.613Z,25.15
2022-11-24T15:05:11.124Z,21.05
2022-11-24T15:08:08.521Z,17.50
2022-11-24T15:11:11.515Z,19.58
2022-11-24T15:14:12.644Z,26.23
2022-11-24T15:17:13.551Z,21.55
2022-11-24T15:20:22.555Z,16.95
2022-11-24T15:23:33.815Z,23.45
2022-11-24T15:26:41.443Z,22.90
2022-11-24T15:29:42.508Z,23.23
2022-11-24T15:32:43.600Z,17.48
2022-11-24T15:35:45.743Z,20.58
2022-11-24T15:38:46.516Z,17.70
2022-11-24T15:41:48.574Z,18.02
2022-11-24T15:44:49.525Z,20.50
2022-11-24T15:47:50.559Z,32.25
2022-11-24T15:50:51.555Z,15.80
2022-11-24T15:54:00.394Z,20.67
2022-11-24T15:57:01.614Z,17.60
2022-11-24T16:00:02.578Z,28.65
2022-11-24T16:03:38.357Z,17.55
2022-11-24T16:06:30.633Z,18.10
2022-11-24T16:09:31.518Z,28.75
2022-11-24T16:12:33.555Z,21.05
2022-11-24T16:15:34.684Z,18.90
2022-11-24T16:18:35.564Z,27.13
2022-11-24T16:21:36.541Z,16.73
2022-11-24T16:24:37.550Z,18.15
2022-11-24T16:27:38.609Z,20.55
2022-11-24T16:30:40.535Z,18.13
2022-11-24T16:33:47.580Z,23.58
2022-11-24T16:36:49.576Z,25.40
2022-11-24T16:39:50.580Z,17.13
2022-11-24T16:42:51.764Z,19.98
2022-11-24T16:45:52.611Z,22.70
2022-11-24T16:48:53.573Z,21.70
2022-11-24T16:51:54.815Z,23.98
2022-11-24T16:54:55.569Z,23.27
2022-11-24T16:57:56.584Z,18.77
2022-11-24T17:00:57.637Z,23.52
2022-11-24T17:03:51.571Z,23.98
2022-11-24T17:06:52.576Z,22.92
2022-11-24T17:09:53.600Z,30.27
2022-11-24T17:12:54.584Z,24.55
2022-11-24T17:15:55.564Z,20.75
2022-11-24T17:18:57.571Z,21.02
2022-11-24T17:21:58.599Z,23.30
2022-11-24T17:28:00.578Z,21.67
2022-11-24T17:31:01.574Z,19.42
2022-11-24T17:34:02.648Z,19.77
2022-11-24T17:37:03.599Z,19.35
2022-11-24T17:40:27.446Z,28.92
2022-11-24T17:43:26.577Z,30.55
2022-11-24T17:46:27.631Z,25.63
2022-11-24T17:49:28.645Z,22.35
2022-11-24T17:52:30.609Z,25.90
2022-11-24T17:58:32.605Z,19.90
2022-11-24T18:01:34.627Z,18.30
2022-11-24T18:04:28.581Z,24.42
2022-11-24T18:07:29.648Z,24.70
2022-11-24T18:10:30.617Z,16.60
2022-11-24T18:13:54.951Z,19.67
2022-11-24T18:16:52.673Z,19.75
2022-11-24T18:19:53.588Z,20.48
2022-11-24T18:23:09.826Z,21.48
2022-11-24T18:26:12.583Z,24.05
2022-11-24T18:29:13.606Z,16.30
2022-11-24T18:32:14.695Z,19.83
2022-11-24T18:35:15.617Z,17.33
2022-11-24T18:38:16.591Z,18.02
2022-11-24T18:41:17.595Z,15.73
2022-11-24T18:44:18.608Z,14.82
2022-11-24T18:47:19.623Z,19.42
2022-11-24T18:50:21.603Z,14.30
2022-11-24T18:53:22.641Z,17.92
2022-11-24T18:56:31.599Z,14.27
2022-11-24T18:59:32.586Z,26.27
2022-11-24T19:02:33.672Z,30.10
2022-11-24T19:05:34.612Z,18.48
2022-11-24T19:08:35.623Z,19.92
2022-11-24T19:11:41.606Z,22.92
2022-11-24T19:14:42.823Z,27.77
2022-11-24T19:17:47.231Z,23.23
2022-11-24T19:20:47.609Z,17.83
2022-11-24T19:23:49.818Z,18.73
2022-11-24T19:26:50.643Z,17.27
2022-11-24T19:29:52.639Z,23.20
2022-11-24T19:32:53.607Z,22.13
2022-11-24T19:35:54.630Z,12.68
2022-11-24T19:38:58.618Z,19.48
2022-11-24T19:41:59.646Z,15.93
2022-11-24T19:45:00.692Z,26.30
2022-11-24T19:48:01.694Z,19.73
2022-11-24T19:51:02.621Z,19.90
2022-11-24T19:54:03.675Z,25.65
2022-11-24T19:57:06.653Z,17.23
2022-11-24T20:00:07.645Z,26.17
2022-11-24T20:03:09.636Z,22.02
2022-11-24T20:06:10.706Z,24.42
2022-11-24T20:09:12.630Z,17.63
2022-11-24T20:12:13.635Z,18.20
2022-11-24T20:15:14.634Z,17.65
2022-11-24T20:18:15.636Z,19.42
2022-11-24T20:21:17.649Z,20.95
2022-11-24T20:24:20.650Z,29.65
2022-11-24T20:27:21.648Z,16.80
2022-11-24T20:30:22.657Z,19.30
2022-11-24T20:33:23.676Z,26.23
2022-11-24T20:36:25.875Z,18.40
2022-11-24T20:39:31.698Z,15.40
2022-11-24T20:42:33.654Z,18.42
2022-11-24T20:45:34.683Z,20.40
2022-11-24T20:48:35.693Z,14.38
2022-11-24T20:51:38.703Z,21.60
2022-11-24T20:54:39.648Z,19.33
2022-11-24T20:57:40.665Z,16.60
2022-11-24T21:00:41.704Z,15.40
2022-11-24T21:03:43.556Z,21.80
2022-11-24T21:06:45.672Z,22.08
2022-11-24T21:09:46.644Z,13.13
2022-11-24T21:12:47.709Z,19.83
2022-11-24T21:15:48.662Z,31.92
2022-11-24T21:18:49.669Z,16.50
2022-11-24T21:21:50.656Z,27.92
2022-11-24T21:24:51.704Z,20.77
2022-11-24T21:27:52.661Z,21.38
2022-11-24T21:30:53.832Z,13.63
2022-11-24T21:34:01.649Z,21.95
2022-11-24T21:37:02.775Z,19.67
2022-11-24T21:40:03.669Z,17.90
2022-11-24T21:43:04.670Z,26.48
2022-11-24T21:46:05.786Z,14.25
2022-11-24T21:49:07.672Z,27.83
2022-11-24T21:52:08.686Z,21.77
2022-11-24T21:55:10.673Z,18.65
2022-11-24T21:58:11.694Z,28.20
2022-11-24T22:01:19.754Z,16.73
2022-11-24T22:04:20.687Z,23.35
2022-11-24T22:07:21.734Z,21.23
2022-11-24T22:10:22.702Z,21.20
2022-11-24T22:13:23.673Z,31.65
2022-11-24T22:16:26.815Z,17.98
2022-11-24T22:19:27.697Z,17.77
2022-11-24T22:22:29.677Z,25.52
2022-11-24T22:25:30.686Z,23.77
2022-11-24T22:28:31.696Z,23.92
2022-11-24T22:31:34.743Z,25.73
2022-11-24T22:34:36.116Z,24.48
2022-11-24T22:37:36.745Z,17.35
2022-11-24T22:40:37.691Z,27.00
2022-11-24T22:43:38.717Z,19.20
2022-11-24T22:46:40.696Z,21.30
2022-11-24T22:49:41.696Z,15.85
2022-11-24T22:52:43.695Z,20.48
2022-11-24T22:55:44.713Z,19.70
2022-11-24T22:58:46.704Z,23.58
2022-11-24T23:01:47.715Z,29.35
2022-11-24T23:04:49.700Z,18.90
2022-11-24T23:07:50.772Z,19.02
2022-11-24T23:10:51.707Z,25.30
2022-11-24T23:13:52.708Z,17.52
2022-11-24T23:16:53.710Z,20.45
2022-11-24T23:19:54.717Z,19.83
2022-11-24T23:22:55.720Z,21.58
2022-11-24T23:25:56.707Z,23.98
2022-11-24T23:28:57.727Z,28.67
2022-11-24T23:31:58.779Z,18.40
2022-11-24T23:34:59.911Z,20.80
2022-11-24T23:38:09.829Z,19.75
2022-11-24T23:41:10.780Z,20.30
2022-11-24T23:44:11.733Z,24.98
2022-11-24T23:47:12.728Z,16.15
2022-11-24T23:50:14.713Z,21.70
2022-11-24T23:53:15.710Z,22.52
2022-11-24T23:56:17.737Z,16.63
2022-11-24T23:59:18.771Z,21.95
